sensor_id;sensor_type;location;lat;lon;timestamp;pressure;altitude;pressure_sealevel;temperature;humidity
54600;BME280;40500;51.084;16.958;2023-02-13T00:02:13;102381.98;;;4.81;100.00
54600;BME280;40500;51.084;16.958;2023-02-13T00:04:43;102378.87;;;4.81;100.00
54600;BME280;40500;51.084;16.958;2023-02-13T00:07:15;102382.69;;;4.81;100.00
54600;BME280;40500;51.084;16.958;2023-02-13T00:09:45;102384.59;;;4.81;100.00
54600;BME280;40500;51.084;16.958;2023-02-13T00:12:18;102383.89;;;4.81;100.00
54600;BME280;40500;51.084;16.958;2023-02-13T00:14:50;102380.44;;;4.82;100.00
54600;BME280;40500;51.084;16.958;2023-02-13T00:17:20;102377.16;;;4.82;100.00
54600;BME280;40500;51.084;16.958;2023-02-13T00:19:52;102372.27;;;4.82;100.00
54600;BME280;40500;51.084;16.958;2023-02-13T00:22:22;102375.82;;;4.83;100.00
54600;BME280;40500;51.084;16.958;2023-02-13T00:24:53;102372.45;;;4.81;100.00
54600;BME280;40500;51.084;16.958;2023-02-13T00:27:24;102371.55;;;4.80;100.00
54600;BME280;40500;51.084;16.958;2023-02-13T00:29:55;102373.28;;;4.81;100.00
54600;BME280;40500;51.084;16.958;2023-02-13T00:32:26;102372.25;;;4.81;100.00
54600;BME280;40500;51.084;16.958;2023-02-13T00:34:57;102372.05;;;4.80;100.00
54600;BME280;40500;51.084;16.958;2023-02-13T00:37:28;102372.92;;;4.80;100.00
54600;BME280;40500;51.084;16.958;2023-02-13T00:40:01;102377.25;;;4.80;100.00
54600;BME280;40500;51.084;16.958;2023-02-13T00:42:47;102374.96;;;4.79;100.00
54600;BME280;40500;51.084;16.958;2023-02-13T00:45:17;102370.59;;;4.78;100.00
54600;BME280;40500;51.084;16.958;2023-02-13T00:47:48;102373.36;;;4.78;100.00
54600;BME280;40500;51.084;16.958;2023-02-13T00:50:22;102373.91;;;4.79;100.00
54600;BME280;40500;51.084;16.958;2023-02-13T00:52:55;102372.73;;;4.80;100.00
54600;BME280;40500;51.084;16.958;2023-02-13T00:55:26;102371.20;;;4.80;100.00
54600;BME280;40500;51.084;16.958;2023-02-13T00:57:56;102371.19;;;4.80;100.00
54600;BME280;40500;51.084;16.958;2023-02-13T01:00:27;102368.98;;;4.82;100.00
54600;BME280;40500;51.084;16.958;2023-02-13T01:03:02;102372.98;;;4.82;100.00
54600;BME280;40500;51.084;16.958;2023-02-13T01:05:35;102374.25;;;4.83;100.00
54600;BME280;40500;51.084;16.958;2023-02-13T01:08:06;102376.52;;;4.83;100.00
54600;BME280;40500;51.084;16.958;2023-02-13T01:10:39;102368.52;;;4.83;100.00
54600;BME280;40500;51.084;16.958;2023-02-13T01:13:11;102372.08;;;4.85;100.00
54600;BME280;40500;51.084;16.958;2023-02-13T01:15:42;102370.85;;;4.85;100.00
54600;BME280;40500;51.084;16.958;2023-02-13T01:18:18;102368.96;;;4.85;100.00
54600;BME280;40500;51.084;16.958;2023-02-13T01:20:58;102365.67;;;4.86;100.00
54600;BME280;40500;51.084;16.958;2023-02-13T01:23:34;102364.84;;;4.86;100.00
54600;BME280;40500;51.084;16.958;2023-02-13T01:26:09;102367.08;;;4.86;100.00
54600;BME280;40500;51.084;16.958;2023-02-13T01:28:42;102362.48;;;4.84;100.00
54600;BME280;40500;51.084;16.958;2023-02-13T01:31:21;102361.08;;;4.84;100.00
54600;BME280;40500;51.084;16.958;2023-02-13T01:33:54;102364.93;;;4.84;100.00
54600;BME280;40500;51.084;16.958;2023-02-13T01:36:25;102358.94;;;4.82;100.00
54600;BME280;40500;51.084;16.958;2023-02-13T01:38:57;102359.77;;;4.81;100.00
54600;BME280;40500;51.084;16.958;2023-02-13T01:41:28;102358.55;;;4.81;100.00
54600;BME280;40500;51.084;16.958;2023-02-13T01:44:00;102355.75;;;4.80;100.00
54600;BME280;40500;51.084;16.958;2023-02-13T01:46:34;102357.66;;;4.81;100.00
54600;BME280;40500;51.084;16.958;2023-02-13T01:49:11;102360.30;;;4.81;100.00
54600;BME280;40500;51.084;16.958;2023-02-13T01:51:43;102354.52;;;4.80;100.00
54600;BME280;40500;51.084;16.958;2023-02-13T01:54:16;102353.80;;;4.79;100.00
54600;BME280;40500;51.084;16.958;2023-02-13T01:56:50;102353.27;;;4.79;100.00
54600;BME280;40500;51.084;16.958;2023-02-13T01:59:32;102356.71;;;4.78;100.00
54600;BME280;40500;51.084;16.958;2023-02-13T02:02:04;102355.88;;;4.79;100.00
54600;BME280;40500;51.084;16.958;2023-02-13T02:04:38;102352.75;;;4.80;100.00
54600;BME280;40500;51.084;16.958;2023-02-13T02:07:19;102336.69;;;4.77;100.00
54600;BME280;40500;51.084;16.958;2023-02-13T02:09:52;102335.52;;;4.73;100.00
54600;BME280;40500;51.084;16.958;2023-02-13T02:12:28;102334.42;;;4.72;100.00
54600;BME280;40500;51.084;16.958;2023-02-13T02:15:02;102337.27;;;4.70;100.00
54600;BME280;40500;51.084;16.958;2023-02-13T02:17:34;102335.48;;;4.68;100.00
54600;BME280;40500;51.084;16.958;2023-02-13T02:20:17;102336.35;;;4.68;100.00
54600;BME280;40500;51.084;16.958;2023-02-13T02:23:16;102338.44;;;4.68;100.00
54600;BME280;40500;51.084;16.958;2023-02-13T02:26:15;102342.86;;;4.66;100.00
54600;BME280;40500;51.084;16.958;2023-02-13T02:32:08;102335.29;;;4.63;100.00
54600;BME280;40500;51.084;16.958;2023-02-13T02:34:49;102329.21;;;4.63;100.00
54600;BME280;40500;51.084;16.958;2023-02-13T02:37:37;102329.35;;;4.62;100.00
54600;BME280;40500;51.084;16.958;2023-02-13T02:40:22;102331.92;;;4.61;100.00
54600;BME280;40500;51.084;16.958;2023-02-13T02:43:10;102329.79;;;4.60;100.00
54600;BME280;40500;51.084;16.958;2023-02-13T02:45:50;102332.56;;;4.60;100.00
54600;BME280;40500;51.084;16.958;2023-02-13T02:48:28;102326.83;;;4.60;100.00
54600;BME280;40500;51.084;16.958;2023-02-13T02:51:26;102324.86;;;4.59;100.00
54600;BME280;40500;51.084;16.958;2023-02-13T02:54:06;102326.25;;;4.58;100.00
54600;BME280;40500;51.084;16.958;2023-02-13T02:57:05;102328.73;;;4.59;100.00
54600;BME280;40500;51.084;16.958;2023-02-13T02:59:40;102326.95;;;4.58;100.00
54600;BME280;40500;51.084;16.958;2023-02-13T03:02:29;102329.23;;;4.59;100.00
54600;BME280;40500;51.084;16.958;2023-02-13T03:05:19;102329.42;;;4.59;100.00
54600;BME280;40500;51.084;16.958;2023-02-13T03:08:08;102332.74;;;4.60;100.00
54600;BME280;40500;51.084;16.958;2023-02-13T03:10:42;102333.83;;;4.61;100.00
54600;BME280;40500;51.084;16.958;2023-02-13T03:13:36;102336.61;;;4.61;100.00
54600;BME280;40500;51.084;16.958;2023-02-13T03:16:14;102333.17;;;4.62;100.00
54600;BME280;40500;51.084;16.958;2023-02-13T03:19:04;102329.59;;;4.64;100.00
54600;BME280;40500;51.084;16.958;2023-02-13T03:21:57;102322.80;;;4.63;100.00
54600;BME280;40500;51.084;16.958;2023-02-13T03:24:52;102321.94;;;4.63;100.00
54600;BME280;40500;51.084;16.958;2023-02-13T03:27:36;102325.77;;;4.64;100.00
54600;BME280;40500;51.084;16.958;2023-02-13T03:30:38;102325.09;;;4.64;100.00
54600;BME280;40500;51.084;16.958;2023-02-13T03:33:20;102329.31;;;4.65;100.00
54600;BME280;40500;51.084;16.958;2023-02-13T03:36:00;102332.92;;;4.69;100.00
54600;BME280;40500;51.084;16.958;2023-02-13T03:38:57;102328.01;;;4.68;100.00
54600;BME280;40500;51.084;16.958;2023-02-13T03:41:37;102327.45;;;4.67;100.00
54600;BME280;40500;51.084;16.958;2023-02-13T03:44:14;102333.13;;;4.65;100.00
54600;BME280;40500;51.084;16.958;2023-02-13T03:46:48;102336.65;;;4.67;100.00
54600;BME280;40500;51.084;16.958;2023-02-13T03:49:23;102334.24;;;4.67;100.00
54600;BME280;40500;51.084;16.958;2023-02-13T03:52:16;102335.57;;;4.66;100.00
54600;BME280;40500;51.084;16.958;2023-02-13T03:54:51;102329.27;;;4.64;100.00
54600;BME280;40500;51.084;16.958;2023-02-13T03:57:44;102337.46;;;4.65;100.00
54600;BME280;40500;51.084;16.958;2023-02-13T04:00:38;102342.13;;;4.64;100.00
54600;BME280;40500;51.084;16.958;2023-02-13T04:03:14;102339.27;;;4.62;100.00
54600;BME280;40500;51.084;16.958;2023-02-13T04:59:10;102312.59;;;5.68;100.00
54600;BME280;40500;51.084;16.958;2023-02-13T05:02:08;102313.80;;;5.52;100.00
54600;BME280;40500;51.084;16.958;2023-02-13T06:59:34;102346.80;;;5.86;100.00
54600;BME280;40500;51.084;16.958;2023-02-13T07:02:02;102349.95;;;5.67;100.00
54600;BME280;40500;51.084;16.958;2023-02-13T07:04:30;102348.39;;;5.57;100.00
54600;BME280;40500;51.084;16.958;2023-02-13T07:07:00;102349.81;;;5.48;100.00
54600;BME280;40500;51.084;16.958;2023-02-13T07:09:30;102353.09;;;5.43;100.00
54600;BME280;40500;51.084;16.958;2023-02-13T07:11:58;102349.80;;;5.34;100.00
54600;BME280;40500;51.084;16.958;2023-02-13T07:14:28;102353.45;;;5.30;100.00
54600;BME280;40500;51.084;16.958;2023-02-13T07:16:56;102349.14;;;5.26;100.00
54600;BME280;40500;51.084;16.958;2023-02-13T07:19:26;102351.08;;;5.22;100.00
54600;BME280;40500;51.084;16.958;2023-02-13T07:21:54;102349.20;;;5.18;100.00
54600;BME280;40500;51.084;16.958;2023-02-13T07:24:24;102345.27;;;5.14;100.00
54600;BME280;40500;51.084;16.958;2023-02-13T07:26:52;102341.31;;;5.11;100.00
54600;BME280;40500;51.084;16.958;2023-02-13T07:29:20;102341.39;;;5.08;100.00
54600;BME280;40500;51.084;16.958;2023-02-13T07:31:49;102343.45;;;5.08;100.00
54600;BME280;40500;51.084;16.958;2023-02-13T07:34:17;102343.42;;;5.07;100.00
54600;BME280;40500;51.084;16.958;2023-02-13T07:36:45;102339.85;;;5.05;100.00
54600;BME280;40500;51.084;16.958;2023-02-13T07:39:12;102338.48;;;5.05;100.00
54600;BME280;40500;51.084;16.958;2023-02-13T07:41:44;102341.25;;;5.05;100.00
54600;BME280;40500;51.084;16.958;2023-02-13T07:44:15;102346.45;;;5.05;100.00
54600;BME280;40500;51.084;16.958;2023-02-13T07:46:55;102341.81;;;5.06;100.00
54600;BME280;40500;51.084;16.958;2023-02-13T07:49:27;102340.92;;;5.05;100.00
54600;BME280;40500;51.084;16.958;2023-02-13T07:52:03;102341.77;;;5.05;100.00
54600;BME280;40500;51.084;16.958;2023-02-13T07:54:31;102338.92;;;5.08;100.00
54600;BME280;40500;51.084;16.958;2023-02-13T07:56:59;102337.61;;;5.09;100.00
54600;BME280;40500;51.084;16.958;2023-02-13T07:59:29;102341.89;;;5.12;100.00
54600;BME280;40500;51.084;16.958;2023-02-13T08:01:58;102348.10;;;5.16;100.00
54600;BME280;40500;51.084;16.958;2023-02-13T08:04:26;102344.20;;;5.19;100.00
54600;BME280;40500;51.084;16.958;2023-02-13T08:06:55;102345.49;;;5.21;100.00
54600;BME280;40500;51.084;16.958;2023-02-13T08:09:22;102343.55;;;5.25;100.00
54600;BME280;40500;51.084;16.958;2023-02-13T08:12:09;102343.48;;;5.27;100.00
54600;BME280;40500;51.084;16.958;2023-02-13T08:14:38;102337.92;;;5.28;100.00
54600;BME280;40500;51.084;16.958;2023-02-13T08:17:09;102343.05;;;5.30;100.00
54600;BME280;40500;51.084;16.958;2023-02-13T08:19:40;102347.98;;;5.31;100.00
54600;BME280;40500;51.084;16.958;2023-02-13T08:22:08;102346.29;;;5.33;100.00
54600;BME280;40500;51.084;16.958;2023-02-13T08:24:37;102347.63;;;5.36;100.00
54600;BME280;40500;51.084;16.958;2023-02-13T08:27:19;102346.33;;;5.39;100.00
54600;BME280;40500;51.084;16.958;2023-02-13T08:29:48;102347.30;;;5.41;100.00
54600;BME280;40500;51.084;16.958;2023-02-13T08:32:17;102348.66;;;5.46;100.00
54600;BME280;40500;51.084;16.958;2023-02-13T08:34:46;102346.38;;;5.50;100.00
54600;BME280;40500;51.084;16.958;2023-02-13T08:37:17;102347.90;;;5.53;100.00
54600;BME280;40500;51.084;16.958;2023-02-13T08:39:45;102346.95;;;5.56;100.00
54600;BME280;40500;51.084;16.958;2023-02-13T08:42:13;102346.40;;;5.60;100.00
54600;BME280;40500;51.084;16.958;2023-02-13T08:44:43;102342.84;;;5.62;100.00
54600;BME280;40500;51.084;16.958;2023-02-13T08:47:11;102349.73;;;5.66;100.00
54600;BME280;40500;51.084;16.958;2023-02-13T08:49:38;102346.71;;;5.69;100.00
54600;BME280;40500;51.084;16.958;2023-02-13T08:52:16;102345.20;;;5.70;100.00
54600;BME280;40500;51.084;16.958;2023-02-13T08:54:43;102347.45;;;5.70;100.00
54600;BME280;40500;51.084;16.958;2023-02-13T08:57:11;102345.74;;;5.71;100.00
54600;BME280;40500;51.084;16.958;2023-02-13T08:59:38;102344.73;;;5.72;100.00
54600;BME280;40500;51.084;16.958;2023-02-13T09:02:09;102344.86;;;5.71;100.00
54600;BME280;40500;51.084;16.958;2023-02-13T09:04:37;102345.58;;;5.71;100.00
54600;BME280;40500;51.084;16.958;2023-02-13T09:07:06;102350.23;;;5.70;100.00
54600;BME280;40500;51.084;16.958;2023-02-13T09:09:33;102350.77;;;5.70;100.00
54600;BME280;40500;51.084;16.958;2023-02-13T09:12:01;102353.07;;;5.71;100.00
54600;BME280;40500;51.084;16.958;2023-02-13T09:14:29;102359.85;;;5.72;100.00
54600;BME280;40500;51.084;16.958;2023-02-13T09:16:56;102362.20;;;5.74;100.00
54600;BME280;40500;51.084;16.958;2023-02-13T09:19:24;102363.73;;;5.73;100.00
54600;BME280;40500;51.084;16.958;2023-02-13T09:21:52;102368.41;;;5.73;100.00
54600;BME280;40500;51.084;16.958;2023-02-13T09:24:20;102368.21;;;5.72;100.00
54600;BME280;40500;51.084;16.958;2023-02-13T09:26:48;102369.58;;;5.72;100.00
54600;BME280;40500;51.084;16.958;2023-02-13T09:29:16;102374.23;;;5.66;100.00
54600;BME280;40500;51.084;16.958;2023-02-13T09:31:44;102374.86;;;5.54;100.00
54600;BME280;40500;51.084;16.958;2023-02-13T09:34:12;102381.05;;;5.48;100.00
54600;BME280;40500;51.084;16.958;2023-02-13T09:36:41;102390.65;;;5.44;100.00
54600;BME280;40500;51.084;16.958;2023-02-13T09:39:09;102393.73;;;5.47;100.00
54600;BME280;40500;51.084;16.958;2023-02-13T09:41:40;102394.04;;;5.51;100.00
54600;BME280;40500;51.084;16.958;2023-02-13T09:44:14;102390.10;;;5.52;100.00
54600;BME280;40500;51.084;16.958;2023-02-13T09:46:57;102391.41;;;5.55;100.00
54600;BME280;40500;51.084;16.958;2023-02-13T09:49:29;102393.87;;;5.56;100.00
54600;BME280;40500;51.084;16.958;2023-02-13T09:51:57;102399.85;;;5.63;100.00
54600;BME280;40500;51.084;16.958;2023-02-13T09:54:27;102393.63;;;5.69;100.00
54600;BME280;40500;51.084;16.958;2023-02-13T09:57:01;102400.41;;;5.73;100.00
54600;BME280;40500;51.084;16.958;2023-02-13T09:59:41;102401.41;;;5.77;100.00
54600;BME280;40500;51.084;16.958;2023-02-13T10:02:28;102397.55;;;5.86;100.00
54600;BME280;40500;51.084;16.958;2023-02-13T10:05:07;102399.04;;;5.98;100.00
54600;BME280;40500;51.084;16.958;2023-02-13T10:07:46;102403.41;;;6.03;100.00
54600;BME280;40500;51.084;16.958;2023-02-13T10:10:24;102399.17;;;6.02;100.00
54600;BME280;40500;51.084;16.958;2023-02-13T10:13:07;102397.23;;;6.00;100.00
54600;BME280;40500;51.084;16.958;2023-02-13T10:15:45;102393.38;;;6.05;100.00
54600;BME280;40500;51.084;16.958;2023-02-13T10:18:17;102395.19;;;6.12;100.00
54600;BME280;40500;51.084;16.958;2023-02-13T10:20:50;102395.81;;;6.20;100.00
54600;BME280;40500;51.084;16.958;2023-02-13T10:23:23;102395.77;;;6.29;100.00
54600;BME280;40500;51.084;16.958;2023-02-13T10:25:57;102392.30;;;6.39;100.00
54600;BME280;40500;51.084;16.958;2023-02-13T10:28:32;102392.40;;;6.48;100.00
54600;BME280;40500;51.084;16.958;2023-02-13T10:31:05;102392.02;;;6.57;100.00
54600;BME280;40500;51.084;16.958;2023-02-13T10:33:39;102387.22;;;6.60;100.00
54600;BME280;40500;51.084;16.958;2023-02-13T10:36:17;102388.16;;;6.62;100.00
54600;BME280;40500;51.084;16.958;2023-02-13T10:38:54;102386.78;;;6.62;100.00
54600;BME280;40500;51.084;16.958;2023-02-13T10:41:24;102386.58;;;6.62;100.00
54600;BME280;40500;51.084;16.958;2023-02-13T10:44:16;102379.60;;;6.61;100.00
54600;BME280;40500;51.084;16.958;2023-02-13T10:46:57;102379.05;;;6.60;100.00
54600;BME280;40500;51.084;16.958;2023-02-13T10:49:40;102375.05;;;6.60;100.00
54600;BME280;40500;51.084;16.958;2023-02-13T10:52:21;102375.21;;;6.65;100.00
54600;BME280;40500;51.084;16.958;2023-02-13T10:55:04;102375.25;;;6.67;100.00
54600;BME280;40500;51.084;16.958;2023-02-13T10:57:50;102373.06;;;6.69;100.00
54600;BME280;40500;51.084;16.958;2023-02-13T11:00:27;102367.08;;;6.72;100.00
54600;BME280;40500;51.084;16.958;2023-02-13T11:02:58;102364.48;;;6.72;100.00
54600;BME280;40500;51.084;16.958;2023-02-13T11:05:31;102358.98;;;6.76;100.00
54600;BME280;40500;51.084;16.958;2023-02-13T11:07:59;102355.73;;;6.83;100.00
54600;BME280;40500;51.084;16.958;2023-02-13T11:10:28;102357.16;;;6.79;100.00
54600;BME280;40500;51.084;16.958;2023-02-13T11:12:56;102359.37;;;6.71;100.00
54600;BME280;40500;51.084;16.958;2023-02-13T11:15:26;102362.86;;;6.66;100.00
54600;BME280;40500;51.084;16.958;2023-02-13T11:17:57;102360.48;;;6.62;100.00
54600;BME280;40500;51.084;16.958;2023-02-13T11:20:33;102357.69;;;6.62;100.00
54600;BME280;40500;51.084;16.958;2023-02-13T11:23:24;102357.92;;;6.59;100.00
54600;BME280;40500;51.084;16.958;2023-02-13T11:25:56;102348.67;;;6.58;100.00
54600;BME280;40500;51.084;16.958;2023-02-13T11:28:27;102341.08;;;6.60;100.00
54600;BME280;40500;51.084;16.958;2023-02-13T11:31:23;102343.48;;;6.59;100.00
54600;BME280;40500;51.084;16.958;2023-02-13T11:33:52;102338.95;;;6.58;100.00
54600;BME280;40500;51.084;16.958;2023-02-13T11:36:26;102339.65;;;6.59;100.00
54600;BME280;40500;51.084;16.958;2023-02-13T11:39:04;102339.31;;;6.59;100.00
54600;BME280;40500;51.084;16.958;2023-02-13T11:41:38;102340.67;;;6.58;100.00
54600;BME280;40500;51.084;16.958;2023-02-13T11:44:20;102337.27;;;6.55;100.00
54600;BME280;40500;51.084;16.958;2023-02-13T11:46:52;102333.78;;;6.55;100.00
54600;BME280;40500;51.084;16.958;2023-02-13T11:49:22;102330.03;;;6.51;100.00
54600;BME280;40500;51.084;16.958;2023-02-13T11:51:52;102328.89;;;6.49;100.00
54600;BME280;40500;51.084;16.958;2023-02-13T11:54:28;102331.36;;;6.44;100.00
54600;BME280;40500;51.084;16.958;2023-02-13T11:56:58;102333.79;;;6.38;100.00
54600;BME280;40500;51.084;16.958;2023-02-13T11:59:40;102336.02;;;6.32;100.00
54600;BME280;40500;51.084;16.958;2023-02-13T12:02:18;102335.23;;;6.28;100.00
54600;BME280;40500;51.084;16.958;2023-02-13T12:05:17;102336.77;;;6.28;100.00
54600;BME280;40500;51.084;16.958;2023-02-13T12:07:59;102328.91;;;6.27;100.00
54600;BME280;40500;51.084;16.958;2023-02-13T12:10:31;102333.64;;;6.28;100.00
54600;BME280;40500;51.084;16.958;2023-02-13T12:13:34;102337.14;;;6.24;100.00
54600;BME280;40500;51.084;16.958;2023-02-13T12:19:50;102333.79;;;6.27;100.00
54600;BME280;40500;51.084;16.958;2023-02-13T12:23:02;102336.02;;;6.27;100.00
54600;BME280;40500;51.084;16.958;2023-02-13T12:25:51;102334.63;;;6.27;100.00
54600;BME280;40500;51.084;16.958;2023-02-13T12:28:24;102335.66;;;6.26;100.00
54600;BME280;40500;51.084;16.958;2023-02-13T12:31:17;102329.53;;;6.25;100.00
54600;BME280;40500;51.084;16.958;2023-02-13T12:34:10;102324.96;;;6.24;100.00
54600;BME280;40500;51.084;16.958;2023-02-13T12:36:56;102323.37;;;6.23;100.00
54600;BME280;40500;51.084;16.958;2023-02-13T12:39:32;102321.61;;;6.22;100.00
54600;BME280;40500;51.084;16.958;2023-02-13T12:42:23;102314.90;;;6.25;100.00
54600;BME280;40500;51.084;16.958;2023-02-13T12:45:13;102311.88;;;6.27;100.00
54600;BME280;40500;51.084;16.958;2023-02-13T12:47:57;102308.95;;;6.29;100.00
54600;BME280;40500;51.084;16.958;2023-02-13T12:50:34;102313.13;;;6.29;100.00
54600;BME280;40500;51.084;16.958;2023-02-13T12:53:13;102309.27;;;6.28;100.00
54600;BME280;40500;51.084;16.958;2023-02-13T12:56:05;102311.31;;;6.32;100.00
54600;BME280;40500;51.084;16.958;2023-02-13T12:58:58;102310.90;;;6.35;100.00
54600;BME280;40500;51.084;16.958;2023-02-13T13:01:43;102312.41;;;6.40;100.00
54600;BME280;40500;51.084;16.958;2023-02-13T13:04:19;102308.31;;;6.42;100.00
54600;BME280;40500;51.084;16.958;2023-02-13T13:07:01;102303.09;;;6.42;100.00
54600;BME280;40500;51.084;16.958;2023-02-13T13:09:51;102306.66;;;6.45;100.00
54600;BME280;40500;51.084;16.958;2023-02-13T13:12:41;102305.80;;;6.45;100.00
54600;BME280;40500;51.084;16.958;2023-02-13T13:15:20;102304.50;;;6.48;100.00
54600;BME280;40500;51.084;16.958;2023-02-13T13:18:04;102302.80;;;6.49;100.00
54600;BME280;40500;51.084;16.958;2023-02-13T13:20:50;102297.34;;;6.52;100.00
54600;BME280;40500;51.084;16.958;2023-02-13T13:23:21;102296.29;;;6.58;100.00
54600;BME280;40500;51.084;16.958;2023-02-13T13:25:58;102294.48;;;6.61;100.00
54600;BME280;40500;51.084;16.958;2023-02-13T13:28:36;102304.30;;;6.64;100.00
54600;BME280;40500;51.084;16.958;2023-02-13T13:31:05;102307.98;;;6.65;100.00
54600;BME280;40500;51.084;16.958;2023-02-13T13:33:35;102310.17;;;6.62;100.00
54600;BME280;40500;51.084;16.958;2023-02-13T13:36:12;102313.52;;;6.58;100.00
54600;BME280;40500;51.084;16.958;2023-02-13T13:38:50;102315.21;;;6.56;100.00
54600;BME280;40500;51.084;16.958;2023-02-13T13:41:29;102312.41;;;6.56;100.00
54600;BME280;40500;51.084;16.958;2023-02-13T13:44:03;102314.14;;;6.56;100.00
54600;BME280;40500;51.084;16.958;2023-02-13T13:46:37;102309.91;;;6.54;100.00
54600;BME280;40500;51.084;16.958;2023-02-13T13:49:26;102306.70;;;6.51;100.00
54600;BME280;40500;51.084;16.958;2023-02-13T13:52:19;102299.73;;;6.51;100.00
54600;BME280;40500;51.084;16.958;2023-02-13T13:54:47;102291.35;;;6.50;100.00
54600;BME280;40500;51.084;16.958;2023-02-13T13:57:18;102294.83;;;6.50;100.00
54600;BME280;40500;51.084;16.958;2023-02-13T14:02:45;102291.88;;;6.50;100.00
54600;BME280;40500;51.084;16.958;2023-02-13T14:05:26;102295.00;;;6.50;100.00
54600;BME280;40500;51.084;16.958;2023-02-13T14:07:55;102293.60;;;6.50;100.00
54600;BME280;40500;51.084;16.958;2023-02-13T14:13:31;102289.95;;;6.50;100.00
54600;BME280;40500;51.084;16.958;2023-02-13T14:16:00;102288.65;;;6.47;100.00
54600;BME280;40500;51.084;16.958;2023-02-13T14:18:29;102288.04;;;6.44;100.00
54600;BME280;40500;51.084;16.958;2023-02-13T14:21:00;102291.81;;;6.43;100.00
54600;BME280;40500;51.084;16.958;2023-02-13T14:23:34;102291.42;;;6.41;100.00
54600;BME280;40500;51.084;16.958;2023-02-13T14:26:34;102285.23;;;6.38;100.00
54600;BME280;40500;51.084;16.958;2023-02-13T14:29:23;102277.82;;;6.35;100.00
54600;BME280;40500;51.084;16.958;2023-02-13T14:32:20;102279.70;;;6.33;100.00
54600;BME280;40500;51.084;16.958;2023-02-13T14:34:55;102277.38;;;6.32;100.00
54600;BME280;40500;51.084;16.958;2023-02-13T14:37:28;102271.09;;;6.31;100.00
54600;BME280;40500;51.084;16.958;2023-02-13T14:40:27;102269.86;;;6.31;100.00
54600;BME280;40500;51.084;16.958;2023-02-13T14:42:56;102269.65;;;6.29;100.00
54600;BME280;40500;51.084;16.958;2023-02-13T14:45:27;102265.27;;;6.28;100.00
54600;BME280;40500;51.084;16.958;2023-02-13T14:47:57;102264.55;;;6.28;100.00
54600;BME280;40500;51.084;16.958;2023-02-13T14:50:32;102260.73;;;6.28;100.00
54600;BME280;40500;51.084;16.958;2023-02-13T14:53:08;102250.82;;;6.28;100.00
54600;BME280;40500;51.084;16.958;2023-02-13T14:55:45;102236.70;;;6.27;100.00
54600;BME280;40500;51.084;16.958;2023-02-13T14:58:19;102231.62;;;6.26;100.00
54600;BME280;40500;51.084;16.958;2023-02-13T15:00:53;102230.90;;;6.25;100.00
54600;BME280;40500;51.084;16.958;2023-02-13T15:03:30;102228.98;;;6.25;100.00
54600;BME280;40500;51.084;16.958;2023-02-13T15:06:03;102233.86;;;6.25;100.00
54600;BME280;40500;51.084;16.958;2023-02-13T15:08:35;102231.39;;;6.24;100.00
54600;BME280;40500;51.084;16.958;2023-02-13T15:11:04;102224.73;;;6.23;100.00
54600;BME280;40500;51.084;16.958;2023-02-13T15:13:52;102220.88;;;6.22;100.00
54600;BME280;40500;51.084;16.958;2023-02-13T15:16:20;102224.63;;;6.20;100.00
54600;BME280;40500;51.084;16.958;2023-02-13T15:18:50;102219.56;;;6.19;100.00
54600;BME280;40500;51.084;16.958;2023-02-13T15:21:20;102219.40;;;6.19;100.00
54600;BME280;40500;51.084;16.958;2023-02-13T15:23:53;102221.96;;;6.18;100.00
54600;BME280;40500;51.084;16.958;2023-02-13T15:26:23;102221.40;;;6.17;100.00
54600;BME280;40500;51.084;16.958;2023-02-13T15:29:02;102221.71;;;6.15;100.00
54600;BME280;40500;51.084;16.958;2023-02-13T15:31:34;102219.23;;;6.14;100.00
54600;BME280;40500;51.084;16.958;2023-02-13T15:34:20;102227.37;;;6.13;100.00
54600;BME280;40500;51.084;16.958;2023-02-13T15:36:48;102237.08;;;6.12;100.00
54600;BME280;40500;51.084;16.958;2023-02-13T15:39:18;102241.05;;;6.11;100.00
54600;BME280;40500;51.084;16.958;2023-02-13T15:41:47;102233.89;;;6.10;100.00
54600;BME280;40500;51.084;16.958;2023-02-13T15:44:18;102234.58;;;6.10;100.00
54600;BME280;40500;51.084;16.958;2023-02-13T15:46:50;102232.33;;;6.10;100.00
54600;BME280;40500;51.084;16.958;2023-02-13T15:49:20;102231.98;;;6.10;100.00
54600;BME280;40500;51.084;16.958;2023-02-13T15:51:50;102222.72;;;6.09;100.00
54600;BME280;40500;51.084;16.958;2023-02-13T15:54:30;102230.19;;;6.08;100.00
54600;BME280;40500;51.084;16.958;2023-02-13T15:57:04;102224.60;;;6.08;100.00
54600;BME280;40500;51.084;16.958;2023-02-13T15:59:34;102220.71;;;6.06;100.00
54600;BME280;40500;51.084;16.958;2023-02-13T16:02:13;102215.09;;;6.04;100.00
54600;BME280;40500;51.084;16.958;2023-02-13T16:04:43;102225.85;;;6.03;100.00
54600;BME280;40500;51.084;16.958;2023-02-13T16:07:14;102233.06;;;6.01;100.00
54600;BME280;40500;51.084;16.958;2023-02-13T16:09:42;102224.65;;;5.99;100.00
54600;BME280;40500;51.084;16.958;2023-02-13T16:12:18;102216.11;;;5.98;100.00
54600;BME280;40500;51.084;16.958;2023-02-13T16:14:52;102218.31;;;5.96;100.00
54600;BME280;40500;51.084;16.958;2023-02-13T16:17:29;102216.49;;;5.94;100.00
54600;BME280;40500;51.084;16.958;2023-02-13T16:20:00;102220.60;;;5.92;100.00
54600;BME280;40500;51.084;16.958;2023-02-13T16:22:34;102221.42;;;5.90;100.00
54600;BME280;40500;51.084;16.958;2023-02-13T16:25:13;102220.69;;;5.90;100.00
54600;BME280;40500;51.084;16.958;2023-02-13T16:27:44;102212.27;;;5.87;100.00